Air Navigation Services of Czech Republic
Airport: LKKB Updated:  18.07.2018 18:01:07  UTC
 METAR LKKB 18.07. 18:00 ...
METAR LKKB 181800Z 34010KT 300V020 9999 FEW048 SCT060 25/10 Q1014 NOSIG RMK BLU BLU=
 TAF LKKB 18.07. 17:00 ...
TAF LKKB 181700Z 1818/1918 32014KT CAVOK      BECMG 1820/1822 36008KT      BECMG 1906/1908 34014KT SCT045      TEMPO 1908/1918 36015G25KT=